Terminal Aerodrome Forecast
Issued by NWS Sioux Falls, SD

Home | Current Version | Previous Version | Graphics & Text | Print | Product List | Glossary Off
Versions: 1 2 3 4 5 6 7 8 9 10 11 12

000
FTUS43 KFSD 221720
TAFHON
TAF
KHON 221720Z 2218/2318 02007KT P6SM SCT100
     FM222200 34006KT P6SM FEW200
     FM230000 29007KT P6SM FEW200
     FM231100 31011KT P6SM FEW110
     FM231400 32015G24KT P6SM SCT050=

USA.gov is the U.S. government's official web portal to all federal, state and local government web resources and services.